sensor_id;sensor_type;location;lat;lon;timestamp;P1;durP1;ratioP1;P2;durP2;ratioP2
3331;SDS011;1678;50.94845400;5.30809100;2022-08-27T00:01:54;5.40;;;3.10;;
3331;SDS011;1678;50.94845400;5.30809100;2022-08-27T00:04:23;7.47;;;2.83;;
3331;SDS011;1678;50.94845400;5.30809100;2022-08-27T00:06:52;4.03;;;3.00;;
3331;SDS011;1678;50.94845400;5.30809100;2022-08-27T00:09:21;3.27;;;2.70;;
3331;SDS011;1678;50.94845400;5.30809100;2022-08-27T00:11:52;3.30;;;3.10;;
3331;SDS011;1678;50.94845400;5.30809100;2022-08-27T00:14:20;3.83;;;3.47;;
3331;SDS011;1678;50.94845400;5.30809100;2022-08-27T00:16:50;4.20;;;3.73;;
3331;SDS011;1678;50.94845400;5.30809100;2022-08-27T00:19:18;6.20;;;3.37;;
3331;SDS011;1678;50.94845400;5.30809100;2022-08-27T00:21:46;4.00;;;3.70;;
3331;SDS011;1678;50.94845400;5.30809100;2022-08-27T00:24:15;6.13;;;4.67;;
3331;SDS011;1678;50.94845400;5.30809100;2022-08-27T00:26:43;7.60;;;4.07;;
3331;SDS011;1678;50.94845400;5.30809100;2022-08-27T00:29:11;7.20;;;3.70;;
3331;SDS011;1678;50.94845400;5.30809100;2022-08-27T00:31:39;11.97;;;4.27;;
3331;SDS011;1678;50.94845400;5.30809100;2022-08-27T00:34:10;10.60;;;3.90;;
3331;SDS011;1678;50.94845400;5.30809100;2022-08-27T00:36:38;7.30;;;4.60;;
3331;SDS011;1678;50.94845400;5.30809100;2022-08-27T00:39:06;14.33;;;5.67;;
3331;SDS011;1678;50.94845400;5.30809100;2022-08-27T00:41:34;4.77;;;4.37;;
3331;SDS011;1678;50.94845400;5.30809100;2022-08-27T00:44:04;4.00;;;3.80;;
3331;SDS011;1678;50.94845400;5.30809100;2022-08-27T00:46:33;5.80;;;5.33;;
3331;SDS011;1678;50.94845400;5.30809100;2022-08-27T00:49:05;4.97;;;4.20;;
3331;SDS011;1678;50.94845400;5.30809100;2022-08-27T00:51:39;4.87;;;4.30;;
3331;SDS011;1678;50.94845400;5.30809100;2022-08-27T00:54:07;6.50;;;4.03;;
3331;SDS011;1678;50.94845400;5.30809100;2022-08-27T00:56:41;7.40;;;4.43;;
3331;SDS011;1678;50.94845400;5.30809100;2022-08-27T00:59:17;6.73;;;6.17;;
3331;SDS011;1678;50.94845400;5.30809100;2022-08-27T01:01:47;6.27;;;4.70;;
3331;SDS011;1678;50.94845400;5.30809100;2022-08-27T01:04:33;9.43;;;5.07;;
3331;SDS011;1678;50.94845400;5.30809100;2022-08-27T01:07:05;8.47;;;4.10;;
3331;SDS011;1678;50.94845400;5.30809100;2022-08-27T01:09:33;3.80;;;3.57;;
3331;SDS011;1678;50.94845400;5.30809100;2022-08-27T01:12:02;3.70;;;3.33;;
3331;SDS011;1678;50.94845400;5.30809100;2022-08-27T01:14:31;4.90;;;4.33;;
3331;SDS011;1678;50.94845400;5.30809100;2022-08-27T01:16:59;7.07;;;5.13;;
3331;SDS011;1678;50.94845400;5.30809100;2022-08-27T01:19:32;4.17;;;4.03;;
3331;SDS011;1678;50.94845400;5.30809100;2022-08-27T01:22:06;11.73;;;4.97;;
3331;SDS011;1678;50.94845400;5.30809100;2022-08-27T01:24:50;7.37;;;5.20;;
3331;SDS011;1678;50.94845400;5.30809100;2022-08-27T01:27:21;5.53;;;4.70;;
3331;SDS011;1678;50.94845400;5.30809100;2022-08-27T01:29:52;4.87;;;4.57;;
3331;SDS011;1678;50.94845400;5.30809100;2022-08-27T01:32:22;8.23;;;5.73;;
3331;SDS011;1678;50.94845400;5.30809100;2022-08-27T01:34:51;7.67;;;6.10;;
3331;SDS011;1678;50.94845400;5.30809100;2022-08-27T01:37:20;7.03;;;5.10;;
3331;SDS011;1678;50.94845400;5.30809100;2022-08-27T01:39:51;5.63;;;5.23;;
3331;SDS011;1678;50.94845400;5.30809100;2022-08-27T01:42:22;8.50;;;6.13;;
3331;SDS011;1678;50.94845400;5.30809100;2022-08-27T01:44:52;5.97;;;5.00;;
3331;SDS011;1678;50.94845400;5.30809100;2022-08-27T01:47:22;5.93;;;5.53;;
3331;SDS011;1678;50.94845400;5.30809100;2022-08-27T01:49:56;5.70;;;5.17;;
3331;SDS011;1678;50.94845400;5.30809100;2022-08-27T01:52:26;6.43;;;5.80;;
3331;SDS011;1678;50.94845400;5.30809100;2022-08-27T01:54:57;8.23;;;4.90;;
3331;SDS011;1678;50.94845400;5.30809100;2022-08-27T01:57:25;9.63;;;5.10;;
3331;SDS011;1678;50.94845400;5.30809100;2022-08-27T01:59:53;6.30;;;4.70;;
3331;SDS011;1678;50.94845400;5.30809100;2022-08-27T02:02:23;8.73;;;5.00;;
3331;SDS011;1678;50.94845400;5.30809100;2022-08-27T02:04:51;5.03;;;4.73;;
3331;SDS011;1678;50.94845400;5.30809100;2022-08-27T02:07:19;5.47;;;4.97;;
3331;SDS011;1678;50.94845400;5.30809100;2022-08-27T02:09:47;4.77;;;4.50;;
3331;SDS011;1678;50.94845400;5.30809100;2022-08-27T02:12:17;5.63;;;5.23;;
3331;SDS011;1678;50.94845400;5.30809100;2022-08-27T02:14:45;8.47;;;5.40;;
3331;SDS011;1678;50.94845400;5.30809100;2022-08-27T02:17:13;5.87;;;5.40;;
3331;SDS011;1678;50.94845400;5.30809100;2022-08-27T02:19:41;6.00;;;5.60;;
3331;SDS011;1678;50.94845400;5.30809100;2022-08-27T02:22:10;11.07;;;6.20;;
3331;SDS011;1678;50.94845400;5.30809100;2022-08-27T02:24:38;5.83;;;5.37;;
3331;SDS011;1678;50.94845400;5.30809100;2022-08-27T02:27:07;7.70;;;6.97;;
3331;SDS011;1678;50.94845400;5.30809100;2022-08-27T02:29:36;6.40;;;6.03;;
3331;SDS011;1678;50.94845400;5.30809100;2022-08-27T02:32:05;8.93;;;5.90;;
3331;SDS011;1678;50.94845400;5.30809100;2022-08-27T02:34:47;9.30;;;6.37;;
3331;SDS011;1678;50.94845400;5.30809100;2022-08-27T02:37:15;10.33;;;6.50;;
3331;SDS011;1678;50.94845400;5.30809100;2022-08-27T02:39:43;6.97;;;6.27;;
3331;SDS011;1678;50.94845400;5.30809100;2022-08-27T02:42:11;7.77;;;4.70;;
3331;SDS011;1678;50.94845400;5.30809100;2022-08-27T02:44:41;6.63;;;6.00;;
3331;SDS011;1678;50.94845400;5.30809100;2022-08-27T02:47:09;9.93;;;6.57;;
3331;SDS011;1678;50.94845400;5.30809100;2022-08-27T02:49:37;7.90;;;5.70;;
3331;SDS011;1678;50.94845400;5.30809100;2022-08-27T02:52:06;7.60;;;6.77;;
3331;SDS011;1678;50.94845400;5.30809100;2022-08-27T02:54:34;7.13;;;5.47;;
3331;SDS011;1678;50.94845400;5.30809100;2022-08-27T02:57:02;7.03;;;6.37;;
3331;SDS011;1678;50.94845400;5.30809100;2022-08-27T02:59:30;7.40;;;6.70;;
3331;SDS011;1678;50.94845400;5.30809100;2022-08-27T03:01:59;7.40;;;6.00;;
3331;SDS011;1678;50.94845400;5.30809100;2022-08-27T03:04:28;8.40;;;6.07;;
3331;SDS011;1678;50.94845400;5.30809100;2022-08-27T03:06:56;9.07;;;6.20;;
3331;SDS011;1678;50.94845400;5.30809100;2022-08-27T03:09:24;9.60;;;6.10;;
3331;SDS011;1678;50.94845400;5.30809100;2022-08-27T03:11:52;20.67;;;6.50;;
3331;SDS011;1678;50.94845400;5.30809100;2022-08-27T03:14:20;18.30;;;7.43;;
3331;SDS011;1678;50.94845400;5.30809100;2022-08-27T03:16:48;7.90;;;7.10;;
3331;SDS011;1678;50.94845400;5.30809100;2022-08-27T03:19:17;10.73;;;7.90;;
3331;SDS011;1678;50.94845400;5.30809100;2022-08-27T03:21:49;10.97;;;7.37;;
3331;SDS011;1678;50.94845400;5.30809100;2022-08-27T03:24:20;6.40;;;5.90;;
3331;SDS011;1678;50.94845400;5.30809100;2022-08-27T03:26:48;6.93;;;6.33;;
3331;SDS011;1678;50.94845400;5.30809100;2022-08-27T03:29:19;8.43;;;7.80;;
3331;SDS011;1678;50.94845400;5.30809100;2022-08-27T03:31:47;9.60;;;6.60;;
3331;SDS011;1678;50.94845400;5.30809100;2022-08-27T03:34:15;7.87;;;7.07;;
3331;SDS011;1678;50.94845400;5.30809100;2022-08-27T03:36:46;7.53;;;6.80;;
3331;SDS011;1678;50.94845400;5.30809100;2022-08-27T03:39:16;7.90;;;7.30;;
3331;SDS011;1678;50.94845400;5.30809100;2022-08-27T03:41:44;10.30;;;6.50;;
3331;SDS011;1678;50.94845400;5.30809100;2022-08-27T03:44:20;14.83;;;7.70;;
3331;SDS011;1678;50.94845400;5.30809100;2022-08-27T03:46:49;13.17;;;7.53;;
3331;SDS011;1678;50.94845400;5.30809100;2022-08-27T03:49:18;9.77;;;8.33;;
3331;SDS011;1678;50.94845400;5.30809100;2022-08-27T03:51:49;8.83;;;8.00;;
3331;SDS011;1678;50.94845400;5.30809100;2022-08-27T03:54:17;20.43;;;9.17;;
3331;SDS011;1678;50.94845400;5.30809100;2022-08-27T03:56:46;11.70;;;8.13;;
3331;SDS011;1678;50.94845400;5.30809100;2022-08-27T03:59:14;7.33;;;6.63;;
3331;SDS011;1678;50.94845400;5.30809100;2022-08-27T04:01:43;8.10;;;6.77;;
3331;SDS011;1678;50.94845400;5.30809100;2022-08-27T04:04:11;16.23;;;7.70;;
3331;SDS011;1678;50.94845400;5.30809100;2022-08-27T04:06:39;7.07;;;6.47;;
3331;SDS011;1678;50.94845400;5.30809100;2022-08-27T04:09:09;6.97;;;6.47;;
3331;SDS011;1678;50.94845400;5.30809100;2022-08-27T04:11:37;11.93;;;7.53;;
3331;SDS011;1678;50.94845400;5.30809100;2022-08-27T04:14:05;11.20;;;7.57;;
3331;SDS011;1678;50.94845400;5.30809100;2022-08-27T04:16:51;7.37;;;6.77;;
3331;SDS011;1678;50.94845400;5.30809100;2022-08-27T04:19:21;8.40;;;7.57;;
3331;SDS011;1678;50.94845400;5.30809100;2022-08-27T04:21:56;16.27;;;7.90;;
3331;SDS011;1678;50.94845400;5.30809100;2022-08-27T04:24:28;22.30;;;8.30;;
3331;SDS011;1678;50.94845400;5.30809100;2022-08-27T04:26:57;9.80;;;7.90;;
3331;SDS011;1678;50.94845400;5.30809100;2022-08-27T04:29:25;14.00;;;7.57;;
3331;SDS011;1678;50.94845400;5.30809100;2022-08-27T04:31:53;7.83;;;7.13;;
3331;SDS011;1678;50.94845400;5.30809100;2022-08-27T04:34:22;8.00;;;7.40;;
3331;SDS011;1678;50.94845400;5.30809100;2022-08-27T04:36:50;8.20;;;7.40;;
3331;SDS011;1678;50.94845400;5.30809100;2022-08-27T04:39:21;10.23;;;8.73;;
3331;SDS011;1678;50.94845400;5.30809100;2022-08-27T04:41:51;10.23;;;7.20;;
3331;SDS011;1678;50.94845400;5.30809100;2022-08-27T04:44:21;9.37;;;7.40;;
3331;SDS011;1678;50.94845400;5.30809100;2022-08-27T04:46:53;12.27;;;7.90;;
3331;SDS011;1678;50.94845400;5.30809100;2022-08-27T04:49:23;7.50;;;6.80;;
3331;SDS011;1678;50.94845400;5.30809100;2022-08-27T04:51:52;8.47;;;6.77;;
3331;SDS011;1678;50.94845400;5.30809100;2022-08-27T04:54:21;14.70;;;9.00;;
3331;SDS011;1678;50.94845400;5.30809100;2022-08-27T04:56:59;9.37;;;8.27;;
3331;SDS011;1678;50.94845400;5.30809100;2022-08-27T04:59:28;7.97;;;7.17;;
3331;SDS011;1678;50.94845400;5.30809100;2022-08-27T05:01:56;10.03;;;8.20;;
3331;SDS011;1678;50.94845400;5.30809100;2022-08-27T05:04:29;8.97;;;7.97;;
3331;SDS011;1678;50.94845400;5.30809100;2022-08-27T05:06:58;11.20;;;10.33;;
3331;SDS011;1678;50.94845400;5.30809100;2022-08-27T05:09:26;10.60;;;9.50;;
3331;SDS011;1678;50.94845400;5.30809100;2022-08-27T05:11:54;15.23;;;8.87;;
3331;SDS011;1678;50.94845400;5.30809100;2022-08-27T05:14:24;11.23;;;9.10;;
3331;SDS011;1678;50.94845400;5.30809100;2022-08-27T05:16:55;20.00;;;9.50;;
3331;SDS011;1678;50.94845400;5.30809100;2022-08-27T05:19:24;11.47;;;8.60;;
3331;SDS011;1678;50.94845400;5.30809100;2022-08-27T05:21:52;12.53;;;7.40;;
3331;SDS011;1678;50.94845400;5.30809100;2022-08-27T05:24:20;9.63;;;7.83;;
3331;SDS011;1678;50.94845400;5.30809100;2022-08-27T05:26:49;10.60;;;8.20;;
3331;SDS011;1678;50.94845400;5.30809100;2022-08-27T05:29:17;11.33;;;8.37;;
3331;SDS011;1678;50.94845400;5.30809100;2022-08-27T05:31:47;13.93;;;9.10;;
3331;SDS011;1678;50.94845400;5.30809100;2022-08-27T05:34:15;12.87;;;7.57;;
3331;SDS011;1678;50.94845400;5.30809100;2022-08-27T05:36:51;18.23;;;8.37;;
3331;SDS011;1678;50.94845400;5.30809100;2022-08-27T05:39:19;15.33;;;9.77;;
3331;SDS011;1678;50.94845400;5.30809100;2022-08-27T05:41:47;21.60;;;11.73;;
3331;SDS011;1678;50.94845400;5.30809100;2022-08-27T05:44:17;19.03;;;11.47;;
3331;SDS011;1678;50.94845400;5.30809100;2022-08-27T05:47:07;21.07;;;11.70;;
3331;SDS011;1678;50.94845400;5.30809100;2022-08-27T05:49:35;11.20;;;9.97;;
3331;SDS011;1678;50.94845400;5.30809100;2022-08-27T05:52:06;13.13;;;9.50;;
3331;SDS011;1678;50.94845400;5.30809100;2022-08-27T05:54:35;18.57;;;12.67;;
3331;SDS011;1678;50.94845400;5.30809100;2022-08-27T05:57:04;12.90;;;9.10;;
3331;SDS011;1678;50.94845400;5.30809100;2022-08-27T05:59:32;17.83;;;9.60;;
3331;SDS011;1678;50.94845400;5.30809100;2022-08-27T06:02:19;19.30;;;10.30;;
3331;SDS011;1678;50.94845400;5.30809100;2022-08-27T06:04:47;15.17;;;10.57;;
3331;SDS011;1678;50.94845400;5.30809100;2022-08-27T06:07:15;17.47;;;10.70;;
3331;SDS011;1678;50.94845400;5.30809100;2022-08-27T06:09:44;13.77;;;7.80;;
3331;SDS011;1678;50.94845400;5.30809100;2022-08-27T06:12:12;11.80;;;9.30;;
3331;SDS011;1678;50.94845400;5.30809100;2022-08-27T06:14:40;10.03;;;8.33;;
3331;SDS011;1678;50.94845400;5.30809100;2022-08-27T06:17:08;14.40;;;8.93;;
3331;SDS011;1678;50.94845400;5.30809100;2022-08-27T06:19:37;10.60;;;6.33;;
3331;SDS011;1678;50.94845400;5.30809100;2022-08-27T06:22:07;9.03;;;7.13;;
3331;SDS011;1678;50.94845400;5.30809100;2022-08-27T06:24:37;7.93;;;7.13;;
3331;SDS011;1678;50.94845400;5.30809100;2022-08-27T06:27:07;8.20;;;7.43;;
3331;SDS011;1678;50.94845400;5.30809100;2022-08-27T06:29:36;7.47;;;6.80;;
3331;SDS011;1678;50.94845400;5.30809100;2022-08-27T06:32:05;12.13;;;7.93;;
3331;SDS011;1678;50.94845400;5.30809100;2022-08-27T06:34:34;6.70;;;6.10;;
3331;SDS011;1678;50.94845400;5.30809100;2022-08-27T06:37:04;6.80;;;6.10;;
3331;SDS011;1678;50.94845400;5.30809100;2022-08-27T06:39:32;8.77;;;5.87;;
3331;SDS011;1678;50.94845400;5.30809100;2022-08-27T06:42:02;9.20;;;5.23;;
3331;SDS011;1678;50.94845400;5.30809100;2022-08-27T06:44:31;7.70;;;5.00;;
3331;SDS011;1678;50.94845400;5.30809100;2022-08-27T06:47:00;9.03;;;8.30;;
3331;SDS011;1678;50.94845400;5.30809100;2022-08-27T06:49:29;8.13;;;4.97;;
3331;SDS011;1678;50.94845400;5.30809100;2022-08-27T06:51:58;9.20;;;5.40;;
3331;SDS011;1678;50.94845400;5.30809100;2022-08-27T06:54:28;7.33;;;5.43;;
3331;SDS011;1678;50.94845400;5.30809100;2022-08-27T06:56:57;10.03;;;5.00;;
3331;SDS011;1678;50.94845400;5.30809100;2022-08-27T06:59:26;7.10;;;4.50;;
3331;SDS011;1678;50.94845400;5.30809100;2022-08-27T07:01:54;9.00;;;3.73;;
3331;SDS011;1678;50.94845400;5.30809100;2022-08-27T07:04:23;5.30;;;3.43;;
3331;SDS011;1678;50.94845400;5.30809100;2022-08-27T07:06:58;4.13;;;3.73;;
3331;SDS011;1678;50.94845400;5.30809100;2022-08-27T07:09:26;4.83;;;4.30;;
3331;SDS011;1678;50.94845400;5.30809100;2022-08-27T07:11:57;4.93;;;3.60;;
3331;SDS011;1678;50.94845400;5.30809100;2022-08-27T07:14:26;3.80;;;3.57;;
3331;SDS011;1678;50.94845400;5.30809100;2022-08-27T07:16:59;4.70;;;3.77;;
3331;SDS011;1678;50.94845400;5.30809100;2022-08-27T07:19:28;3.87;;;3.10;;
3331;SDS011;1678;50.94845400;5.30809100;2022-08-27T07:21:57;3.50;;;3.20;;
3331;SDS011;1678;50.94845400;5.30809100;2022-08-27T07:24:25;4.93;;;3.83;;
3331;SDS011;1678;50.94845400;5.30809100;2022-08-27T07:26:54;8.97;;;3.60;;
3331;SDS011;1678;50.94845400;5.30809100;2022-08-27T07:29:23;6.10;;;3.67;;
3331;SDS011;1678;50.94845400;5.30809100;2022-08-27T07:31:56;5.53;;;3.50;;
3331;SDS011;1678;50.94845400;5.30809100;2022-08-27T07:34:25;4.07;;;3.60;;
3331;SDS011;1678;50.94845400;5.30809100;2022-08-27T07:36:53;4.13;;;3.90;;
3331;SDS011;1678;50.94845400;5.30809100;2022-08-27T07:39:21;7.33;;;3.40;;
3331;SDS011;1678;50.94845400;5.30809100;2022-08-27T07:41:49;3.40;;;3.03;;
3331;SDS011;1678;50.94845400;5.30809100;2022-08-27T07:44:36;2.90;;;2.60;;
3331;SDS011;1678;50.94845400;5.30809100;2022-08-27T07:47:06;12.97;;;3.60;;
3331;SDS011;1678;50.94845400;5.30809100;2022-08-27T07:49:34;3.70;;;2.80;;
3331;SDS011;1678;50.94845400;5.30809100;2022-08-27T07:52:02;5.53;;;2.63;;
3331;SDS011;1678;50.94845400;5.30809100;2022-08-27T07:54:31;7.23;;;2.60;;
3331;SDS011;1678;50.94845400;5.30809100;2022-08-27T07:56:59;4.60;;;2.50;;
3331;SDS011;1678;50.94845400;5.30809100;2022-08-27T07:59:27;3.13;;;2.87;;
3331;SDS011;1678;50.94845400;5.30809100;2022-08-27T08:01:57;3.63;;;3.20;;
3331;SDS011;1678;50.94845400;5.30809100;2022-08-27T08:04:25;5.67;;;3.80;;
3331;SDS011;1678;50.94845400;5.30809100;2022-08-27T08:06:53;4.27;;;2.20;;
3331;SDS011;1678;50.94845400;5.30809100;2022-08-27T08:09:22;3.80;;;2.70;;
3331;SDS011;1678;50.94845400;5.30809100;2022-08-27T08:11:51;4.83;;;4.43;;
3331;SDS011;1678;50.94845400;5.30809100;2022-08-27T08:14:19;6.63;;;1.90;;
3331;SDS011;1678;50.94845400;5.30809100;2022-08-27T08:16:47;5.50;;;2.90;;
3331;SDS011;1678;50.94845400;5.30809100;2022-08-27T08:19:17;6.50;;;2.60;;
3331;SDS011;1678;50.94845400;5.30809100;2022-08-27T08:21:45;3.27;;;2.13;;
3331;SDS011;1678;50.94845400;5.30809100;2022-08-27T08:24:14;2.93;;;2.57;;
3331;SDS011;1678;50.94845400;5.30809100;2022-08-27T08:26:42;4.83;;;2.47;;
3331;SDS011;1678;50.94845400;5.30809100;2022-08-27T08:29:10;2.23;;;2.13;;
3331;SDS011;1678;50.94845400;5.30809100;2022-08-27T08:31:43;6.07;;;2.13;;
3331;SDS011;1678;50.94845400;5.30809100;2022-08-27T08:34:15;2.40;;;2.20;;
3331;SDS011;1678;50.94845400;5.30809100;2022-08-27T08:36:46;4.03;;;2.10;;
3331;SDS011;1678;50.94845400;5.30809100;2022-08-27T08:39:20;3.53;;;2.57;;
3331;SDS011;1678;50.94845400;5.30809100;2022-08-27T08:41:50;9.17;;;2.43;;
3331;SDS011;1678;50.94845400;5.30809100;2022-08-27T08:44:23;2.57;;;2.37;;
3331;SDS011;1678;50.94845400;5.30809100;2022-08-27T08:46:59;2.27;;;2.17;;
3331;SDS011;1678;50.94845400;5.30809100;2022-08-27T08:49:33;5.50;;;2.43;;
3331;SDS011;1678;50.94845400;5.30809100;2022-08-27T08:52:20;5.00;;;2.03;;
3331;SDS011;1678;50.94845400;5.30809100;2022-08-27T08:55:02;1.90;;;1.57;;
3331;SDS011;1678;50.94845400;5.30809100;2022-08-27T08:57:40;3.97;;;2.03;;
3331;SDS011;1678;50.94845400;5.30809100;2022-08-27T09:00:15;2.40;;;2.30;;
3331;SDS011;1678;50.94845400;5.30809100;2022-08-27T09:02:48;2.60;;;2.40;;
3331;SDS011;1678;50.94845400;5.30809100;2022-08-27T09:05:21;1.50;;;1.40;;
3331;SDS011;1678;50.94845400;5.30809100;2022-08-27T09:07:55;2.33;;;1.60;;
3331;SDS011;1678;50.94845400;5.30809100;2022-08-27T09:10:51;2.87;;;1.80;;
3331;SDS011;1678;50.94845400;5.30809100;2022-08-27T09:13:24;6.00;;;1.87;;
3331;SDS011;1678;50.94845400;5.30809100;2022-08-27T09:15:57;2.10;;;1.97;;
3331;SDS011;1678;50.94845400;5.30809100;2022-08-27T09:18:27;1.93;;;1.83;;
3331;SDS011;1678;50.94845400;5.30809100;2022-08-27T09:20:58;6.13;;;1.70;;
3331;SDS011;1678;50.94845400;5.30809100;2022-08-27T09:23:36;2.43;;;1.50;;
3331;SDS011;1678;50.94845400;5.30809100;2022-08-27T09:26:16;2.83;;;1.60;;
3331;SDS011;1678;50.94845400;5.30809100;2022-08-27T09:28:46;2.20;;;1.77;;
3331;SDS011;1678;50.94845400;5.30809100;2022-08-27T09:31:34;3.53;;;2.10;;
3331;SDS011;1678;50.94845400;5.30809100;2022-08-27T09:34:05;1.93;;;1.83;;
3331;SDS011;1678;50.94845400;5.30809100;2022-08-27T09:36:44;2.80;;;1.90;;
3331;SDS011;1678;50.94845400;5.30809100;2022-08-27T09:39:18;2.67;;;2.10;;
3331;SDS011;1678;50.94845400;5.30809100;2022-08-27T09:41:52;3.77;;;2.00;;
3331;SDS011;1678;50.94845400;5.30809100;2022-08-27T09:44:20;1.87;;;1.77;;
3331;SDS011;1678;50.94845400;5.30809100;2022-08-27T09:46:53;1.83;;;1.50;;
3331;SDS011;1678;50.94845400;5.30809100;2022-08-27T09:49:24;1.43;;;1.33;;
3331;SDS011;1678;50.94845400;5.30809100;2022-08-27T09:51:54;4.23;;;1.70;;
3331;SDS011;1678;50.94845400;5.30809100;2022-08-27T09:54:25;5.13;;;2.40;;
3331;SDS011;1678;50.94845400;5.30809100;2022-08-27T09:56:58;1.93;;;1.83;;
3331;SDS011;1678;50.94845400;5.30809100;2022-08-27T09:59:28;2.10;;;1.90;;
3331;SDS011;1678;50.94845400;5.30809100;2022-08-27T10:02:02;1.60;;;1.50;;
3331;SDS011;1678;50.94845400;5.30809100;2022-08-27T10:04:38;3.80;;;1.70;;
3331;SDS011;1678;50.94845400;5.30809100;2022-08-27T10:07:25;1.33;;;1.23;;
3331;SDS011;1678;50.94845400;5.30809100;2022-08-27T10:10:07;2.60;;;1.50;;
3331;SDS011;1678;50.94845400;5.30809100;2022-08-27T10:12:44;1.70;;;1.60;;
3331;SDS011;1678;50.94845400;5.30809100;2022-08-27T10:15:18;1.77;;;1.67;;
3331;SDS011;1678;50.94845400;5.30809100;2022-08-27T10:17:50;1.53;;;1.10;;
3331;SDS011;1678;50.94845400;5.30809100;2022-08-27T10:20:29;3.70;;;1.90;;
3331;SDS011;1678;50.94845400;5.30809100;2022-08-27T10:23:08;3.40;;;1.20;;
3331;SDS011;1678;50.94845400;5.30809100;2022-08-27T10:25:47;4.27;;;2.17;;
3331;SDS011;1678;50.94845400;5.30809100;2022-08-27T10:28:29;1.37;;;1.20;;
3331;SDS011;1678;50.94845400;5.30809100;2022-08-27T10:31:15;2.70;;;1.40;;
3331;SDS011;1678;50.94845400;5.30809100;2022-08-27T10:33:52;3.50;;;1.83;;
3331;SDS011;1678;50.94845400;5.30809100;2022-08-27T10:36:35;1.20;;;1.20;;
3331;SDS011;1678;50.94845400;5.30809100;2022-08-27T10:39:12;2.60;;;1.33;;
3331;SDS011;1678;50.94845400;5.30809100;2022-08-27T10:41:51;9.10;;;2.70;;
3331;SDS011;1678;50.94845400;5.30809100;2022-08-27T10:44:28;1.73;;;1.20;;
3331;SDS011;1678;50.94845400;5.30809100;2022-08-27T10:47:12;5.23;;;1.47;;
3331;SDS011;1678;50.94845400;5.30809100;2022-08-27T10:49:51;6.87;;;2.27;;
3331;SDS011;1678;50.94845400;5.30809100;2022-08-27T10:52:26;3.33;;;1.33;;
3331;SDS011;1678;50.94845400;5.30809100;2022-08-27T10:54:58;1.67;;;1.57;;
3331;SDS011;1678;50.94845400;5.30809100;2022-08-27T10:57:37;5.60;;;1.43;;
3331;SDS011;1678;50.94845400;5.30809100;2022-08-27T11:00:28;1.57;;;1.47;;
3331;SDS011;1678;50.94845400;5.30809100;2022-08-27T11:03:02;3.93;;;1.27;;
3331;SDS011;1678;50.94845400;5.30809100;2022-08-27T11:05:40;1.13;;;1.13;;
3331;SDS011;1678;50.94845400;5.30809100;2022-08-27T11:08:12;6.50;;;1.00;;
3331;SDS011;1678;50.94845400;5.30809100;2022-08-27T11:10:47;3.00;;;1.30;;
3331;SDS011;1678;50.94845400;5.30809100;2022-08-27T11:13:19;1.80;;;0.93;;
3331;SDS011;1678;50.94845400;5.30809100;2022-08-27T11:15:54;5.60;;;1.97;;
3331;SDS011;1678;50.94845400;5.30809100;2022-08-27T11:18:26;2.73;;;1.00;;
3331;SDS011;1678;50.94845400;5.30809100;2022-08-27T11:21:04;1.70;;;1.07;;
3331;SDS011;1678;50.94845400;5.30809100;2022-08-27T11:23:40;2.63;;;1.23;;
3331;SDS011;1678;50.94845400;5.30809100;2022-08-27T11:26:12;0.97;;;0.97;;
3331;SDS011;1678;50.94845400;5.30809100;2022-08-27T11:28:41;0.97;;;0.97;;
3331;SDS011;1678;50.94845400;5.30809100;2022-08-27T11:31:14;5.40;;;1.10;;
3331;SDS011;1678;50.94845400;5.30809100;2022-08-27T11:33:46;1.40;;;1.33;;
3331;SDS011;1678;50.94845400;5.30809100;2022-08-27T11:36:30;1.30;;;1.30;;
3331;SDS011;1678;50.94845400;5.30809100;2022-08-27T11:39:23;2.30;;;1.77;;
3331;SDS011;1678;50.94845400;5.30809100;2022-08-27T11:42:05;2.53;;;1.60;;
3331;SDS011;1678;50.94845400;5.30809100;2022-08-27T11:44:41;2.73;;;1.20;;
3331;SDS011;1678;50.94845400;5.30809100;2022-08-27T11:47:12;2.33;;;1.20;;
3331;SDS011;1678;50.94845400;5.30809100;2022-08-27T11:49:46;1.90;;;1.43;;
3331;SDS011;1678;50.94845400;5.30809100;2022-08-27T11:52:21;1.90;;;1.70;;
3331;SDS011;1678;50.94845400;5.30809100;2022-08-27T11:54:55;2.90;;;0.93;;
3331;SDS011;1678;50.94845400;5.30809100;2022-08-27T11:57:36;1.00;;;0.90;;
3331;SDS011;1678;50.94845400;5.30809100;2022-08-27T12:00:16;1.37;;;0.97;;
3331;SDS011;1678;50.94845400;5.30809100;2022-08-27T12:02:55;1.30;;;1.20;;
3331;SDS011;1678;50.94845400;5.30809100;2022-08-27T12:05:31;1.53;;;1.43;;
3331;SDS011;1678;50.94845400;5.30809100;2022-08-27T12:08:11;2.10;;;1.37;;
3331;SDS011;1678;50.94845400;5.30809100;2022-08-27T12:10:50;2.10;;;1.83;;
3331;SDS011;1678;50.94845400;5.30809100;2022-08-27T12:13:38;2.17;;;2.07;;
3331;SDS011;1678;50.94845400;5.30809100;2022-08-27T12:16:14;6.13;;;1.67;;
3331;SDS011;1678;50.94845400;5.30809100;2022-08-27T12:18:59;2.17;;;1.97;;
3331;SDS011;1678;50.94845400;5.30809100;2022-08-27T12:21:35;6.63;;;1.53;;
3331;SDS011;1678;50.94845400;5.30809100;2022-08-27T12:24:26;2.50;;;1.07;;
3331;SDS011;1678;50.94845400;5.30809100;2022-08-27T12:27:25;1.60;;;1.43;;
3331;SDS011;1678;50.94845400;5.30809100;2022-08-27T12:30:03;1.27;;;1.17;;
3331;SDS011;1678;50.94845400;5.30809100;2022-08-27T12:32:47;1.93;;;1.20;;
3331;SDS011;1678;50.94845400;5.30809100;2022-08-27T12:35:19;2.77;;;1.30;;
3331;SDS011;1678;50.94845400;5.30809100;2022-08-27T12:37:49;3.27;;;1.43;;
3331;SDS011;1678;50.94845400;5.30809100;2022-08-27T12:40:23;1.57;;;1.47;;
3331;SDS011;1678;50.94845400;5.30809100;2022-08-27T12:43:02;2.23;;;1.30;;
3331;SDS011;1678;50.94845400;5.30809100;2022-08-27T12:45:33;3.07;;;0.80;;
3331;SDS011;1678;50.94845400;5.30809100;2022-08-27T12:48:11;1.13;;;1.13;;
3331;SDS011;1678;50.94845400;5.30809100;2022-08-27T12:50:40;2.20;;;1.20;;
3331;SDS011;1678;50.94845400;5.30809100;2022-08-27T12:53:20;1.90;;;1.37;;
3331;SDS011;1678;50.94845400;5.30809100;2022-08-27T12:56:12;2.23;;;1.30;;
3331;SDS011;1678;50.94845400;5.30809100;2022-08-27T12:59:00;1.17;;;1.07;;
3331;SDS011;1678;50.94845400;5.30809100;2022-08-27T13:01:44;0.90;;;0.90;;
3331;SDS011;1678;50.94845400;5.30809100;2022-08-27T13:04:21;1.87;;;1.17;;
3331;SDS011;1678;50.94845400;5.30809100;2022-08-27T13:06:52;4.13;;;1.10;;
3331;SDS011;1678;50.94845400;5.30809100;2022-08-27T13:09:30;4.63;;;1.47;;
3331;SDS011;1678;50.94845400;5.30809100;2022-08-27T13:12:01;1.83;;;1.40;;
3331;SDS011;1678;50.94845400;5.30809100;2022-08-27T13:14:34;2.20;;;2.07;;
3331;SDS011;1678;50.94845400;5.30809100;2022-08-27T13:17:06;4.30;;;1.90;;
3331;SDS011;1678;50.94845400;5.30809100;2022-08-27T13:19:37;1.50;;;1.50;;
3331;SDS011;1678;50.94845400;5.30809100;2022-08-27T13:22:19;1.70;;;1.60;;
3331;SDS011;1678;50.94845400;5.30809100;2022-08-27T13:24:49;1.80;;;1.10;;
3331;SDS011;1678;50.94845400;5.30809100;2022-08-27T13:27:23;1.63;;;1.50;;
3331;SDS011;1678;50.94845400;5.30809100;2022-08-27T13:29:52;1.63;;;1.53;;
3331;SDS011;1678;50.94845400;5.30809100;2022-08-27T13:32:22;2.00;;;1.50;;
3331;SDS011;1678;50.94845400;5.30809100;2022-08-27T13:34:53;1.50;;;1.40;;
3331;SDS011;1678;50.94845400;5.30809100;2022-08-27T13:37:23;1.37;;;1.10;;